createdAt,value
2017-10-21T00:02:12.487Z,100893
2017-10-21T00:04:40.658Z,100891
2017-10-21T00:07:08.824Z,100885
2017-10-21T00:09:36.974Z,100898
2017-10-21T00:12:05.135Z,100899
2017-10-21T00:14:34.057Z,100893
2017-10-21T00:17:02.219Z,100895
2017-10-21T00:19:30.368Z,100890
2017-10-21T00:21:59.298Z,100896
2017-10-21T00:24:27.477Z,100898
2017-10-21T00:26:55.642Z,100904
2017-10-21T00:29:23.795Z,100895
2017-10-21T00:31:51.934Z,100892
2017-10-21T00:34:20.098Z,100891
2017-10-21T00:36:48.249Z,100898
2017-10-21T00:39:16.406Z,100887
2017-10-21T00:41:44.558Z,100888
2017-10-21T00:44:12.729Z,100892
2017-10-21T00:46:40.870Z,100886
2017-10-21T00:49:09.037Z,100887
2017-10-21T00:51:37.189Z,100892
2017-10-21T00:54:05.363Z,100896
2017-10-21T00:56:33.510Z,100890
2017-10-21T00:59:01.674Z,100898
2017-10-21T01:01:29.827Z,100896
2017-10-21T01:03:57.992Z,100890
2017-10-21T01:06:26.904Z,100884
2017-10-21T01:08:55.074Z,100891
2017-10-21T01:11:23.214Z,100895
2017-10-21T01:13:51.366Z,100892
2017-10-21T01:16:19.512Z,100885
2017-10-21T01:18:47.682Z,100884
2017-10-21T01:21:15.852Z,100881
2017-10-21T01:23:44.030Z,100879
2017-10-21T01:26:12.190Z,100883
2017-10-21T01:28:40.554Z,100886
2017-10-21T01:31:08.731Z,100891
2017-10-21T01:33:36.883Z,100876
2017-10-21T01:36:05.823Z,100874
2017-10-21T01:38:33.966Z,100870
2017-10-21T01:41:02.121Z,100878
2017-10-21T01:43:31.027Z,100886
2017-10-21T01:45:59.195Z,100882
2017-10-21T01:48:27.370Z,100881
2017-10-21T01:50:55.555Z,100878
2017-10-21T01:53:23.705Z,100885
2017-10-21T01:55:52.625Z,100890
2017-10-21T01:58:20.787Z,100880
2017-10-21T02:00:48.957Z,100887
2017-10-21T02:03:17.126Z,100877
2017-10-21T02:05:45.270Z,100878
2017-10-21T02:08:13.743Z,100877
2017-10-21T02:10:41.888Z,100875
2017-10-21T02:13:10.064Z,100874
2017-10-21T02:15:38.217Z,100871
2017-10-21T02:18:06.388Z,100865
2017-10-21T02:20:34.558Z,100880
2017-10-21T02:23:02.727Z,100879
2017-10-21T02:25:30.910Z,100879
2017-10-21T02:27:59.101Z,100879
2017-10-21T02:30:27.255Z,100878
2017-10-21T02:32:55.404Z,100887
2017-10-21T02:35:23.600Z,100889
2017-10-21T02:37:51.750Z,100885
2017-10-21T02:40:19.918Z,100877
2017-10-21T02:42:48.062Z,100891
2017-10-21T02:45:16.223Z,100876
2017-10-21T02:47:44.463Z,100878
2017-10-21T02:50:13.055Z,100886
2017-10-21T02:52:41.203Z,100887
2017-10-21T02:55:09.366Z,100891
2017-10-21T02:57:37.568Z,100889
2017-10-21T03:00:06.251Z,100884
2017-10-21T03:02:34.419Z,100891
2017-10-21T03:05:02.587Z,100881
2017-10-21T03:07:30.738Z,100887
2017-10-21T03:09:59.678Z,100896
2017-10-21T03:12:27.832Z,100887
2017-10-21T03:14:55.976Z,100885
2017-10-21T03:17:24.130Z,100888
2017-10-21T03:19:53.040Z,100880
2017-10-21T03:22:21.215Z,100874
2017-10-21T03:24:49.371Z,100885
2017-10-21T03:27:18.290Z,100881
2017-10-21T03:29:46.441Z,100887
2017-10-21T03:32:15.363Z,100895
2017-10-21T03:34:43.506Z,100892
2017-10-21T03:37:12.449Z,100898
2017-10-21T03:39:40.606Z,100912
2017-10-21T03:42:08.782Z,100899
2017-10-21T03:44:36.923Z,100901
2017-10-21T03:47:05.110Z,100909
2017-10-21T03:49:33.264Z,100909
2017-10-21T03:52:01.436Z,100904
2017-10-21T03:54:29.694Z,100907
2017-10-21T03:56:58.602Z,100905
2017-10-21T03:59:27.117Z,100907
2017-10-21T04:01:55.263Z,100909
2017-10-21T04:04:23.456Z,100897
2017-10-21T04:06:51.638Z,100901
2017-10-21T04:09:19.791Z,100904
2017-10-21T04:11:47.927Z,100894
2017-10-21T04:14:16.852Z,100906
2017-10-21T04:16:44.994Z,100898
2017-10-21T04:19:13.933Z,100897
2017-10-21T04:21:42.083Z,100891
2017-10-21T04:24:10.301Z,100900
2017-10-21T04:26:38.443Z,100893
2017-10-21T04:29:06.611Z,100886
2017-10-21T04:31:34.754Z,100901
2017-10-21T04:34:03.679Z,100891
2017-10-21T04:36:31.822Z,100894
2017-10-21T04:39:00.122Z,100888
2017-10-21T04:41:28.278Z,100895
2017-10-21T04:43:56.426Z,100886
2017-10-21T04:46:25.470Z,100886
2017-10-21T04:48:53.614Z,100881
2017-10-21T04:51:21.798Z,100898
2017-10-21T04:53:50.850Z,100891
2017-10-21T05:03:17.591Z,100906
2017-10-21T05:05:45.752Z,100906
2017-10-21T05:08:13.886Z,100915
2017-10-21T05:10:42.810Z,100909
2017-10-21T05:13:11.010Z,100897
2017-10-21T05:15:39.151Z,100895
2017-10-21T05:18:07.358Z,100907
2017-10-21T05:20:35.506Z,100908
2017-10-21T05:23:03.671Z,100909
2017-10-21T05:25:32.569Z,100917
2017-10-21T05:28:00.851Z,100918
2017-10-21T05:30:28.989Z,100930
2017-10-21T05:32:57.914Z,100917
2017-10-21T05:35:26.063Z,100933
2017-10-21T05:37:54.221Z,100923
2017-10-21T05:40:23.137Z,100920
2017-10-21T05:42:51.302Z,100929
2017-10-21T05:45:19.965Z,100928
2017-10-21T05:47:48.882Z,100926
2017-10-21T05:50:17.026Z,100921
2017-10-21T05:52:45.963Z,100924
2017-10-21T05:55:14.823Z,100931
2017-10-21T05:57:44.556Z,100935
2017-10-21T06:00:12.698Z,100932
2017-10-21T06:02:41.602Z,100930
2017-10-21T06:05:09.762Z,100943
2017-10-21T06:07:38.743Z,100928
2017-10-21T06:10:07.670Z,100930
2017-10-21T06:12:35.811Z,100933
2017-10-21T06:15:04.730Z,100929
2017-10-21T06:17:36.695Z,100932
2017-10-21T06:20:04.861Z,100931
2017-10-21T06:22:33.036Z,100927
2017-10-21T06:25:01.203Z,100930
2017-10-21T06:27:29.342Z,100933
2017-10-21T06:29:57.507Z,100932
2017-10-21T06:32:25.667Z,100942
2017-10-21T06:34:53.830Z,100936
2017-10-21T06:37:21.976Z,100947
2017-10-21T06:39:50.169Z,100964
2017-10-21T06:42:19.970Z,100942
2017-10-21T06:44:48.114Z,100961
2017-10-21T06:47:16.319Z,100959
2017-10-21T06:49:44.453Z,100955
2017-10-21T06:52:14.406Z,100961
2017-10-21T06:54:42.542Z,100942
2017-10-21T06:57:10.741Z,100953
2017-10-21T06:59:38.888Z,100956
2017-10-21T07:02:07.051Z,100964
2017-10-21T07:04:36.138Z,100965
2017-10-21T07:07:05.078Z,100966
2017-10-21T07:09:33.213Z,100969
2017-10-21T07:12:01.371Z,100972
2017-10-21T07:14:30.291Z,100970
2017-10-21T07:16:58.452Z,100967
2017-10-21T07:19:26.654Z,100968
2017-10-21T07:21:54.837Z,100975
2017-10-21T07:24:22.982Z,100972
2017-10-21T07:26:51.125Z,100969
2017-10-21T07:29:20.052Z,100968
2017-10-21T07:31:48.194Z,100972
2017-10-21T07:34:17.119Z,100972
2017-10-21T07:36:45.282Z,100985
2017-10-21T07:39:13.441Z,100982
2017-10-21T07:41:41.590Z,100977
2017-10-21T07:44:09.764Z,100978
2017-10-21T07:46:37.906Z,100986
2017-10-21T07:49:06.071Z,100985
2017-10-21T07:51:34.282Z,100987
2017-10-21T07:54:02.443Z,100992
2017-10-21T07:56:30.587Z,100989
2017-10-21T07:58:58.746Z,100988
2017-10-21T08:01:26.904Z,100979
2017-10-21T08:03:55.102Z,100983
2017-10-21T08:06:23.260Z,100984
2017-10-21T08:08:51.422Z,100982
2017-10-21T08:11:20.123Z,100984
2017-10-21T08:13:48.265Z,100983
2017-10-21T08:16:17.188Z,100985
2017-10-21T08:18:45.337Z,100986
2017-10-21T08:21:13.493Z,100986
2017-10-21T08:23:42.514Z,100990
2017-10-21T08:26:10.675Z,100985
2017-10-21T08:28:38.872Z,100990
2017-10-21T08:31:07.032Z,100998
2017-10-21T08:33:35.184Z,100998
2017-10-21T08:36:04.112Z,100991
2017-10-21T08:38:32.283Z,100995
2017-10-21T08:41:00.454Z,101002
2017-10-21T08:43:28.601Z,101007
2017-10-21T08:45:57.147Z,100990
2017-10-21T08:48:25.426Z,100993
2017-10-21T08:50:53.755Z,101010
2017-10-21T08:53:22.519Z,101005
2017-10-21T08:55:50.665Z,101003
2017-10-21T08:58:18.896Z,100999
2017-10-21T09:00:47.302Z,101008
2017-10-21T09:03:15.510Z,101008
2017-10-21T09:05:44.422Z,101011
2017-10-21T09:08:12.577Z,100994
2017-10-21T09:10:41.477Z,100996
2017-10-21T09:13:09.955Z,101000
2017-10-21T09:15:38.098Z,101000
2017-10-21T09:18:06.287Z,100998
2017-10-21T09:20:35.222Z,101008
2017-10-21T09:23:03.387Z,101002
2017-10-21T09:25:31.550Z,101002
2017-10-21T09:27:59.724Z,101004
2017-10-21T09:30:27.890Z,101002
2017-10-21T09:32:56.047Z,101010
2017-10-21T09:35:25.085Z,101002
2017-10-21T09:37:53.246Z,101004
2017-10-21T09:40:21.411Z,101006
2017-10-21T09:42:49.566Z,101015
2017-10-21T09:45:17.725Z,101010
2017-10-21T09:47:45.876Z,101011
2017-10-21T09:50:14.038Z,101008
2017-10-21T09:52:42.191Z,101003
2017-10-21T09:55:10.351Z,101012
2017-10-21T09:57:38.503Z,101010
2017-10-21T10:00:06.666Z,101007
2017-10-21T10:02:34.805Z,100996
2017-10-21T10:05:02.951Z,101005
2017-10-21T10:07:31.111Z,101017
2017-10-21T10:09:59.260Z,101012
2017-10-21T10:12:28.034Z,101005
2017-10-21T10:14:56.963Z,101005
2017-10-21T10:17:25.122Z,101009
2017-10-21T10:19:53.268Z,101008
2017-10-21T10:22:22.199Z,101002
2017-10-21T10:24:50.351Z,100996
2017-10-21T10:27:18.546Z,100991
2017-10-21T10:29:46.693Z,101001
2017-10-21T10:32:15.251Z,101002
2017-10-21T10:34:44.194Z,100993
2017-10-21T10:37:12.379Z,100994
2017-10-21T10:39:40.535Z,100995
2017-10-21T10:42:08.686Z,100981
2017-10-21T10:44:36.849Z,100972
2017-10-21T10:47:05.054Z,100968
2017-10-21T10:49:33.200Z,100969
2017-10-21T10:52:01.398Z,100968
2017-10-21T10:54:29.579Z,100963
2017-10-21T10:56:57.760Z,100969
2017-10-21T10:59:26.023Z,100974
2017-10-21T11:01:54.270Z,100975
2017-10-21T11:04:23.436Z,100969
2017-10-21T11:06:52.359Z,100957
2017-10-21T11:09:20.523Z,100958
2017-10-21T11:11:48.683Z,100961
2017-10-21T11:14:17.627Z,100965
2017-10-21T11:16:45.890Z,100956
2017-10-21T11:19:14.052Z,100948
2017-10-21T11:21:43.952Z,100957
2017-10-21T11:24:12.110Z,100964
2017-10-21T11:26:41.027Z,100952
2017-10-21T11:29:09.170Z,100943
2017-10-21T11:31:38.102Z,100932
2017-10-21T11:34:06.251Z,100924
2017-10-21T11:36:34.620Z,100931
2017-10-21T11:39:03.556Z,100940
2017-10-21T11:41:31.840Z,100940
2017-10-21T11:44:00.002Z,100925
2017-10-21T11:46:28.161Z,100933
2017-10-21T11:48:56.304Z,100938
2017-10-21T11:51:25.230Z,100937
2017-10-21T11:53:53.404Z,100944
2017-10-21T11:56:21.566Z,100949
2017-10-21T11:58:49.713Z,100941
2017-10-21T12:01:18.803Z,100952
2017-10-21T12:03:47.720Z,100951
2017-10-21T12:06:15.857Z,100955
2017-10-21T12:08:44.030Z,100953
2017-10-21T12:11:12.950Z,100952
2017-10-21T12:13:41.106Z,100935
2017-10-21T12:16:10.019Z,100933
2017-10-21T12:18:38.173Z,100941
2017-10-21T12:21:07.075Z,100938
2017-10-21T12:23:35.234Z,100935
2017-10-21T12:26:03.377Z,100930
2017-10-21T12:28:31.529Z,100930
2017-10-21T12:30:59.676Z,100928
2017-10-21T12:33:27.839Z,100937
2017-10-21T12:35:55.981Z,100931
2017-10-21T12:38:24.939Z,100924
2017-10-21T12:40:53.089Z,100922
2017-10-21T12:43:21.240Z,100921
2017-10-21T12:45:49.438Z,100926
2017-10-21T12:48:17.576Z,100919
2017-10-21T12:50:47.318Z,100918
2017-10-21T12:53:15.462Z,100919
2017-10-21T12:55:43.672Z,100924
2017-10-21T12:58:11.823Z,100914
2017-10-21T13:00:39.986Z,100917
2017-10-21T13:03:08.130Z,100917
2017-10-21T13:05:36.290Z,100920
2017-10-21T13:08:04.435Z,100919
2017-10-21T13:10:32.699Z,100914
2017-10-21T13:13:00.833Z,100903
2017-10-21T13:15:29.765Z,100904
2017-10-21T13:17:57.951Z,100902
2017-10-21T13:20:26.139Z,100915
2017-10-21T13:22:54.278Z,100906
2017-10-21T13:25:22.416Z,100913
2017-10-21T13:27:51.342Z,100913
2017-10-21T13:30:19.518Z,100903
2017-10-21T13:32:47.674Z,100892
2017-10-21T13:35:15.865Z,100895
2017-10-21T13:37:44.027Z,100895
2017-10-21T13:40:12.162Z,100904
2017-10-21T13:42:41.087Z,100893
2017-10-21T13:45:09.223Z,100891
2017-10-21T13:47:38.145Z,100886
2017-10-21T13:50:06.330Z,100879
2017-10-21T13:52:34.488Z,100871
2017-10-21T13:55:02.685Z,100870
2017-10-21T13:57:30.835Z,100870
2017-10-21T13:59:58.987Z,100869
2017-10-21T14:02:27.950Z,100861
2017-10-21T14:04:56.094Z,100861
2017-10-21T14:07:24.246Z,100882
2017-10-21T14:09:52.396Z,100877
2017-10-21T14:12:21.312Z,100879
2017-10-21T14:14:49.467Z,100894
2017-10-21T14:17:17.626Z,100899
2017-10-21T14:19:46.555Z,100886
2017-10-21T14:22:14.691Z,100898
2017-10-21T14:24:43.619Z,100902
2017-10-21T14:27:11.760Z,100909
2017-10-21T14:29:40.686Z,100905
2017-10-21T14:32:08.824Z,100901
2017-10-21T14:34:36.982Z,100911
2017-10-21T14:37:05.892Z,100909
2017-10-21T14:39:34.095Z,100913
2017-10-21T14:42:02.243Z,100918
2017-10-21T14:44:30.430Z,100916
2017-10-21T14:46:58.586Z,100916
2017-10-21T14:49:26.723Z,100912
2017-10-21T14:51:54.883Z,100914
2017-10-21T14:54:23.033Z,100921
2017-10-21T14:56:51.194Z,100936
2017-10-21T14:59:19.330Z,100928
2017-10-21T15:01:48.369Z,100933
2017-10-21T15:04:17.210Z,100940
2017-10-21T15:06:46.852Z,100944
2017-10-21T15:09:15.971Z,100938
2017-10-21T15:11:44.129Z,100928
2017-10-21T15:14:12.299Z,100940
2017-10-21T15:16:40.480Z,100941
2017-10-21T15:19:09.070Z,100935
2017-10-21T15:21:37.211Z,100932
2017-10-21T15:24:05.374Z,100927
2017-10-21T15:26:33.572Z,100932
2017-10-21T15:29:01.733Z,100923
2017-10-21T15:31:29.875Z,100924
2017-10-21T15:33:58.912Z,100924
2017-10-21T15:36:27.060Z,100925
2017-10-21T15:38:55.979Z,100916
2017-10-21T15:41:24.118Z,100917
2017-10-21T15:43:53.051Z,100919
2017-10-21T15:46:21.211Z,100918
2017-10-21T15:48:49.366Z,100908
2017-10-21T15:51:17.555Z,100906
2017-10-21T15:53:45.727Z,100902
2017-10-21T15:56:13.908Z,100902
2017-10-21T15:58:42.056Z,100904
2017-10-21T16:01:10.213Z,100896
2017-10-21T16:03:39.132Z,100897
2017-10-21T16:06:07.332Z,100898
2017-10-21T16:08:35.524Z,100902
2017-10-21T16:11:03.698Z,100897
2017-10-21T16:13:31.846Z,100908
2017-10-21T16:16:00.103Z,100896
2017-10-21T16:18:28.251Z,100893
2017-10-21T16:20:56.410Z,100888
2017-10-21T16:23:25.321Z,100887
2017-10-21T16:25:54.026Z,100882
2017-10-21T16:28:22.179Z,100891
2017-10-21T16:30:50.331Z,100891
2017-10-21T16:33:19.267Z,100898
2017-10-21T16:35:47.418Z,100890
2017-10-21T16:38:15.587Z,100896
2017-10-21T16:40:43.799Z,100894
2017-10-21T16:43:11.983Z,100898
2017-10-21T16:45:40.140Z,100909
2017-10-21T16:48:08.320Z,100900
2017-10-21T16:50:36.484Z,100899
2017-10-21T16:53:04.847Z,100905
2017-10-21T16:55:32.999Z,100908
2017-10-21T16:58:01.187Z,100908
2017-10-21T17:00:29.353Z,100907
2017-10-21T17:02:57.544Z,100902
2017-10-21T17:05:25.704Z,100906
2017-10-21T17:07:53.852Z,100903
2017-10-21T17:10:22.054Z,100900
2017-10-21T17:12:50.197Z,100887
2017-10-21T17:15:19.205Z,100891
2017-10-21T17:17:47.391Z,100884
2017-10-21T17:20:15.558Z,100891
2017-10-21T17:22:43.703Z,100895
2017-10-21T17:25:12.742Z,100899
2017-10-21T17:27:40.883Z,100889
2017-10-21T17:30:09.076Z,100895
2017-10-21T17:32:37.233Z,100880
2017-10-21T17:35:05.383Z,100869
2017-10-21T17:37:34.315Z,100880
2017-10-21T17:40:02.496Z,100884
2017-10-21T17:42:30.673Z,100880
2017-10-21T17:44:58.818Z,100884
2017-10-21T17:47:26.986Z,100883
2017-10-21T17:49:55.216Z,100873
2017-10-21T17:52:23.425Z,100873
2017-10-21T17:54:51.611Z,100879
2017-10-21T17:57:20.178Z,100876
2017-10-21T17:59:48.341Z,100878
2017-10-21T18:02:18.536Z,100877
2017-10-21T18:04:46.734Z,100878
2017-10-21T18:07:15.665Z,100865
2017-10-21T18:09:43.818Z,100872
2017-10-21T18:12:11.982Z,100863
2017-10-21T18:14:40.179Z,100879
2017-10-21T18:17:08.362Z,100884
2017-10-21T18:19:36.519Z,100876
2017-10-21T18:22:04.665Z,100875
2017-10-21T18:24:33.711Z,100867
2017-10-21T18:27:01.964Z,100864
2017-10-21T18:29:30.125Z,100862
2017-10-21T18:31:58.274Z,100857
2017-10-21T18:34:27.206Z,100859
2017-10-21T18:36:55.362Z,100863
2017-10-21T18:39:23.634Z,100871
2017-10-21T18:41:51.783Z,100883
2017-10-21T18:44:20.716Z,100877
2017-10-21T18:46:48.888Z,100870
2017-10-21T18:49:17.047Z,100863
2017-10-21T18:51:45.189Z,100873
2017-10-21T18:54:14.137Z,100858
2017-10-21T18:56:42.290Z,100856
2017-10-21T18:59:10.454Z,100855
2017-10-21T19:01:38.601Z,100855
2017-10-21T19:04:07.627Z,100855
2017-10-21T19:06:35.780Z,100847
2017-10-21T19:09:03.930Z,100846
2017-10-21T19:11:32.094Z,100849
2017-10-21T19:14:00.237Z,100846
2017-10-21T19:16:28.411Z,100858
2017-10-21T19:18:56.564Z,100855
2017-10-21T19:21:24.726Z,100853
2017-10-21T19:23:52.868Z,100857
2017-10-21T19:26:21.794Z,100861
2017-10-21T19:28:50.133Z,100858
2017-10-21T19:31:19.066Z,100849
2017-10-21T19:33:47.220Z,100855
2017-10-21T19:36:15.419Z,100850
2017-10-21T19:38:43.559Z,100837
2017-10-21T19:41:12.071Z,100834
2017-10-21T19:43:41.022Z,100823
2017-10-21T19:46:09.987Z,100818
2017-10-21T19:48:38.234Z,100837
2017-10-21T19:51:06.402Z,100838
2017-10-21T19:53:34.569Z,100821
2017-10-21T19:56:02.736Z,100815
2017-10-21T19:58:30.922Z,100810
2017-10-21T20:00:59.070Z,100818
2017-10-21T20:03:27.242Z,100807
2017-10-21T20:05:55.417Z,100798
2017-10-21T20:08:23.581Z,100797
2017-10-21T20:10:51.736Z,100794
2017-10-21T20:13:20.748Z,100782
2017-10-21T20:15:48.899Z,100792
2017-10-21T20:18:17.822Z,100805
2017-10-21T20:20:45.970Z,100807
2017-10-21T20:23:14.955Z,100802
2017-10-21T20:25:43.866Z,100794
2017-10-21T20:28:12.011Z,100774
2017-10-21T20:30:40.954Z,100772
2017-10-21T20:33:09.108Z,100765
2017-10-21T20:35:37.397Z,100756
2017-10-21T20:38:05.923Z,100758
2017-10-21T20:40:34.672Z,100754
2017-10-21T20:43:02.817Z,100769
2017-10-21T20:45:30.978Z,100782
2017-10-21T20:48:00.564Z,100782
2017-10-21T20:50:28.719Z,100797
2017-10-21T20:52:56.873Z,100801
2017-10-21T20:55:25.203Z,100810
2017-10-21T20:57:54.128Z,100797
2017-10-21T21:00:22.293Z,100790
2017-10-21T21:02:50.435Z,100794
2017-10-21T21:05:19.366Z,100802
2017-10-21T21:07:48.268Z,100795
2017-10-21T21:10:16.429Z,100780
2017-10-21T21:12:44.834Z,100784
2017-10-21T21:15:13.092Z,100781
2017-10-21T21:17:41.263Z,100768
2017-10-21T21:20:09.428Z,100775
2017-10-21T21:22:37.590Z,100779
2017-10-21T21:25:06.000Z,100777
2017-10-21T21:27:34.159Z,100758
2017-10-21T21:30:02.307Z,100775
2017-10-21T21:32:30.476Z,100788
2017-10-21T21:34:58.634Z,100787
2017-10-21T21:37:26.816Z,100789
2017-10-21T21:39:55.055Z,100798
2017-10-21T21:42:23.230Z,100796
2017-10-21T21:44:51.483Z,100797
2017-10-21T21:47:20.139Z,100799
2017-10-21T21:49:48.370Z,100797
2017-10-21T21:52:16.597Z,100784
2017-10-21T21:54:44.794Z,100783
2017-10-21T21:57:12.947Z,100781
2017-10-21T21:59:41.110Z,100783
2017-10-21T22:02:09.255Z,100778
2017-10-21T22:04:37.423Z,100783
2017-10-21T22:07:06.663Z,100774
2017-10-21T22:09:35.138Z,100762
2017-10-21T22:12:03.285Z,100765
2017-10-21T22:14:31.441Z,100760
2017-10-21T22:17:00.350Z,100761
2017-10-21T22:19:28.506Z,100765
2017-10-21T22:21:58.130Z,100755
2017-10-21T22:24:27.112Z,100763
2017-10-21T22:26:56.035Z,100771
2017-10-21T22:29:24.310Z,100774
2017-10-21T22:31:52.474Z,100771
2017-10-21T22:34:20.972Z,100772
2017-10-21T22:36:49.139Z,100767
2017-10-21T22:39:17.294Z,100759
2017-10-21T22:41:45.467Z,100750
2017-10-21T22:44:13.633Z,100736
2017-10-21T22:46:41.799Z,100736
2017-10-21T22:49:09.958Z,100722
2017-10-21T22:51:38.899Z,100741
2017-10-21T22:54:07.067Z,100739
2017-10-21T22:56:35.234Z,100743
2017-10-21T22:59:03.386Z,100752
2017-10-21T23:01:31.557Z,100744
2017-10-21T23:04:00.511Z,100733
2017-10-21T23:06:28.750Z,100741
2017-10-21T23:08:56.894Z,100732
2017-10-21T23:11:25.042Z,100732
2017-10-21T23:13:53.969Z,100729
2017-10-21T23:16:22.115Z,100724
2017-10-21T23:18:51.171Z,100735
2017-10-21T23:21:19.323Z,100728
2017-10-21T23:23:48.001Z,100736
2017-10-21T23:26:16.150Z,100727
2017-10-21T23:28:44.303Z,100726
2017-10-21T23:31:12.456Z,100720
2017-10-21T23:33:40.645Z,100731
2017-10-21T23:36:09.559Z,100728
2017-10-21T23:38:37.722Z,100730
2017-10-21T23:41:06.634Z,100727
2017-10-21T23:43:34.793Z,100732
2017-10-21T23:46:02.940Z,100722
2017-10-21T23:48:31.105Z,100721
2017-10-21T23:50:59.267Z,100720
2017-10-21T23:53:27.424Z,100725
2017-10-21T23:55:55.693Z,100718
2017-10-21T23:58:23.873Z,100716
